Firmino Alves, Brazil
Current Conditions -  °F | °C
As of 9:00 AM on Wednesday 28 Jan 2015 (Local Time) from SBIL Reporting Station
Scattered Clouds Scattered Clouds  
Wind Chill: 84°   Ceiling: Unl
Heat Index: 88°   Visibility: 6mi
Dew Point: 70°   Wind: 7mph
Humidity: 62%   Direction: 40°NE
Pressure: 30"   Gusts: NA
Location:  14.99°S, 39.94°W
Report Text: SBIL 281200Z 04006KT 9999 SCT025 29/21 Q1016
Loading
Personal Weather Stations






























Interactive Weather Map New forecast layout! Learn more

10-Day Weather Forecast

Advertisements
Track Severe Weather on mobile